sensor_id;sensor_type;location;lat;lon;timestamp;pressure;altitude;pressure_sealevel;temperature;humidity
62011;BME280;47967;51.756;10.174;2023-08-20T04:04:12;100290.38;;;20.83;100.00
62011;BME280;47967;51.756;10.174;2023-08-20T04:08:16;100290.41;;;20.88;100.00
62011;BME280;47967;51.756;10.174;2023-08-20T04:12:19;100297.25;;;20.86;100.00
62011;BME280;47967;51.756;10.174;2023-08-20T04:16:22;100301.97;;;20.90;100.00
62011;BME280;47967;51.756;10.174;2023-08-20T04:20:26;100297.06;;;20.92;100.00
62011;BME280;47967;51.756;10.174;2023-08-20T04:24:29;100303.19;;;21.00;100.00
62011;BME280;47967;51.756;10.174;2023-08-20T04:28:32;100298.06;;;21.08;100.00
62011;BME280;47967;51.756;10.174;2023-08-20T04:32:35;100304.75;;;21.18;100.00
62011;BME280;47967;51.756;10.174;2023-08-20T04:36:39;100309.00;;;21.31;100.00
62011;BME280;47967;51.756;10.174;2023-08-20T04:40:42;100325.34;;;21.42;100.00
62011;BME280;47967;51.756;10.174;2023-08-20T04:44:45;100334.91;;;21.40;100.00
62011;BME280;47967;51.756;10.174;2023-08-20T04:48:47;100327.22;;;21.42;100.00
62011;BME280;47967;51.756;10.174;2023-08-20T04:52:51;100327.31;;;21.47;100.00
62011;BME280;47967;51.756;10.174;2023-08-20T04:56:54;100339.22;;;21.58;100.00
62011;BME280;47967;51.756;10.174;2023-08-20T05:00:58;100340.88;;;21.59;100.00
62011;BME280;47967;51.756;10.174;2023-08-20T05:05:01;100345.91;;;21.67;100.00
62011;BME280;47967;51.756;10.174;2023-08-20T05:09:05;100347.31;;;21.70;100.00
62011;BME280;47967;51.756;10.174;2023-08-20T05:13:08;100347.19;;;21.87;100.00
62011;BME280;47967;51.756;10.174;2023-08-20T05:17:10;100349.91;;;22.14;100.00
62011;BME280;47967;51.756;10.174;2023-08-20T05:21:13;100343.91;;;22.22;100.00
62011;BME280;47967;51.756;10.174;2023-08-20T05:25:17;100331.97;;;22.39;100.00
62011;BME280;47967;51.756;10.174;2023-08-20T05:29:21;100329.56;;;22.53;100.00
62011;BME280;47967;51.756;10.174;2023-08-20T05:33:24;100329.09;;;22.71;100.00
62011;BME280;47967;51.756;10.174;2023-08-20T05:37:29;100339.97;;;22.94;100.00
62011;BME280;47967;51.756;10.174;2023-08-20T05:41:33;100346.34;;;23.05;100.00
62011;BME280;47967;51.756;10.174;2023-08-20T05:45:37;100353.22;;;23.07;100.00
62011;BME280;47967;51.756;10.174;2023-08-20T05:49:41;100366.28;;;22.74;100.00
62011;BME280;47967;51.756;10.174;2023-08-20T05:53:44;100365.25;;;22.91;100.00
62011;BME280;47967;51.756;10.174;2023-08-20T05:57:48;100355.69;;;23.03;100.00
62011;BME280;47967;51.756;10.174;2023-08-20T06:01:52;100361.13;;;22.93;100.00
62011;BME280;47967;51.756;10.174;2023-08-20T06:05:56;100365.81;;;22.93;100.00
62011;BME280;47967;51.756;10.174;2023-08-20T06:10:05;100355.34;;;22.95;100.00
62011;BME280;47967;51.756;10.174;2023-08-20T06:14:10;100369.56;;;23.24;100.00
62011;BME280;47967;51.756;10.174;2023-08-20T06:18:12;100382.47;;;23.24;100.00
62011;BME280;47967;51.756;10.174;2023-08-20T06:22:15;100387.84;;;23.03;100.00
62011;BME280;47967;51.756;10.174;2023-08-20T06:26:18;100388.06;;;22.86;100.00
62011;BME280;47967;51.756;10.174;2023-08-20T06:30:23;100384.13;;;22.71;100.00
62011;BME280;47967;51.756;10.174;2023-08-20T06:34:25;100384.06;;;22.61;100.00
62011;BME280;47967;51.756;10.174;2023-08-20T06:38:28;100386.03;;;22.71;100.00
62011;BME280;47967;51.756;10.174;2023-08-20T06:42:31;100385.59;;;22.90;100.00
62011;BME280;47967;51.756;10.174;2023-08-20T06:46:35;100374.19;;;23.18;100.00
62011;BME280;47967;51.756;10.174;2023-08-20T06:50:37;100377.03;;;23.34;100.00
62011;BME280;47967;51.756;10.174;2023-08-20T06:54:40;100376.47;;;23.42;100.00
62011;BME280;47967;51.756;10.174;2023-08-20T06:58:43;100375.94;;;23.50;100.00
62011;BME280;47967;51.756;10.174;2023-08-20T07:02:47;100381.81;;;23.90;100.00
62011;BME280;47967;51.756;10.174;2023-08-20T07:06:50;100373.00;;;24.14;100.00
62011;BME280;47967;51.756;10.174;2023-08-20T07:10:53;100366.66;;;24.24;100.00
62011;BME280;47967;51.756;10.174;2023-08-20T07:14:55;100364.97;;;24.43;100.00
62011;BME280;47967;51.756;10.174;2023-08-20T07:18:59;100365.53;;;24.51;100.00
62011;BME280;47967;51.756;10.174;2023-08-20T07:23:02;100371.59;;;24.73;100.00
62011;BME280;47967;51.756;10.174;2023-08-20T07:27:06;100364.75;;;25.26;100.00
62011;BME280;47967;51.756;10.174;2023-08-20T07:31:12;100363.69;;;25.22;100.00
62011;BME280;47967;51.756;10.174;2023-08-20T07:35:16;100370.78;;;25.38;100.00
62011;BME280;47967;51.756;10.174;2023-08-20T07:39:19;100358.47;;;25.65;100.00
62011;BME280;47967;51.756;10.174;2023-08-20T07:43:22;100352.13;;;25.65;100.00
62011;BME280;47967;51.756;10.174;2023-08-20T07:47:24;100338.41;;;25.89;100.00
62011;BME280;47967;51.756;10.174;2023-08-20T07:51:28;100334.19;;;25.97;100.00
62011;BME280;47967;51.756;10.174;2023-08-20T07:55:31;100329.22;;;25.94;100.00
62011;BME280;47967;51.756;10.174;2023-08-20T07:59:33;100344.44;;;25.91;100.00
62011;BME280;47967;51.756;10.174;2023-08-20T08:03:36;100346.16;;;25.87;100.00
62011;BME280;47967;51.756;10.174;2023-08-20T08:07:41;100355.50;;;25.91;100.00
62011;BME280;47967;51.756;10.174;2023-08-20T08:11:43;100355.00;;;26.24;100.00
62011;BME280;47967;51.756;10.174;2023-08-20T08:15:46;100368.09;;;26.42;100.00
62011;BME280;47967;51.756;10.174;2023-08-20T08:19:49;100369.44;;;26.45;96.85
62011;BME280;47967;51.756;10.174;2023-08-20T08:23:56;100370.41;;;26.59;98.68
62011;BME280;47967;51.756;10.174;2023-08-20T08:27:59;100377.28;;;26.62;98.54
62011;BME280;47967;51.756;10.174;2023-08-20T08:32:03;100373.66;;;26.66;94.83
62011;BME280;47967;51.756;10.174;2023-08-20T08:36:05;100371.75;;;26.62;97.92
62011;BME280;47967;51.756;10.174;2023-08-20T08:40:10;100379.09;;;26.77;95.40
62011;BME280;47967;51.756;10.174;2023-08-20T08:44:13;100375.25;;;27.21;91.20
62011;BME280;47967;51.756;10.174;2023-08-20T08:48:16;100372.13;;;27.85;87.85
62011;BME280;47967;51.756;10.174;2023-08-20T08:52:21;100376.56;;;28.52;81.42
62011;BME280;47967;51.756;10.174;2023-08-20T08:56:26;100372.19;;;28.79;78.30
62011;BME280;47967;51.756;10.174;2023-08-20T09:00:28;100381.25;;;28.85;78.54
62011;BME280;47967;51.756;10.174;2023-08-20T09:04:32;100378.41;;;28.43;79.72
62011;BME280;47967;51.756;10.174;2023-08-20T09:08:35;100372.34;;;28.41;76.88
62011;BME280;47967;51.756;10.174;2023-08-20T09:12:39;100373.09;;;28.47;80.49
62011;BME280;47967;51.756;10.174;2023-08-20T09:16:42;100371.28;;;28.23;82.22
62011;BME280;47967;51.756;10.174;2023-08-20T09:20:47;100379.66;;;28.51;82.06
62011;BME280;47967;51.756;10.174;2023-08-20T09:24:54;100376.00;;;28.69;83.79
62011;BME280;47967;51.756;10.174;2023-08-20T09:28:58;100369.31;;;28.70;79.55
62011;BME280;47967;51.756;10.174;2023-08-20T09:33:07;100368.13;;;28.57;83.50
62011;BME280;47967;51.756;10.174;2023-08-20T09:37:11;100363.16;;;28.26;82.83
62011;BME280;47967;51.756;10.174;2023-08-20T09:41:14;100362.59;;;28.10;84.56
62011;BME280;47967;51.756;10.174;2023-08-20T09:45:20;100362.13;;;28.22;87.23
62011;BME280;47967;51.756;10.174;2023-08-20T09:49:24;100359.59;;;28.40;85.73
62011;BME280;47967;51.756;10.174;2023-08-20T09:53:35;100364.44;;;28.48;84.19
62011;BME280;47967;51.756;10.174;2023-08-20T09:57:39;100363.22;;;28.54;82.37
62011;BME280;47967;51.756;10.174;2023-08-20T10:01:48;100354.09;;;28.82;79.93
62011;BME280;47967;51.756;10.174;2023-08-20T10:05:52;100361.81;;;28.85;77.80
62011;BME280;47967;51.756;10.174;2023-08-20T10:09:56;100361.72;;;28.90;78.57
62011;BME280;47967;51.756;10.174;2023-08-20T10:14:01;100363.66;;;29.03;72.16
62011;BME280;47967;51.756;10.174;2023-08-20T10:18:07;100355.63;;;29.02;69.48
62011;BME280;47967;51.756;10.174;2023-08-20T10:22:10;100347.91;;;29.13;74.01
62011;BME280;47967;51.756;10.174;2023-08-20T10:26:14;100356.66;;;29.20;72.36
62011;BME280;47967;51.756;10.174;2023-08-20T10:30:19;100352.50;;;29.17;72.03
62011;BME280;47967;51.756;10.174;2023-08-20T10:34:33;100362.59;;;29.41;71.84
62011;BME280;47967;51.756;10.174;2023-08-20T10:38:37;100356.69;;;29.57;69.73
62011;BME280;47967;51.756;10.174;2023-08-20T10:42:41;100348.22;;;29.84;69.76
62011;BME280;47967;51.756;10.174;2023-08-20T10:46:49;100352.34;;;29.87;71.23
62011;BME280;47967;51.756;10.174;2023-08-20T10:50:55;100352.78;;;29.80;69.20
62011;BME280;47967;51.756;10.174;2023-08-20T10:54:57;100350.56;;;29.68;70.41
62011;BME280;47967;51.756;10.174;2023-08-20T10:59:06;100355.03;;;29.92;68.44
62011;BME280;47967;51.756;10.174;2023-08-20T11:03:10;100348.81;;;29.73;68.94
62011;BME280;47967;51.756;10.174;2023-08-20T11:07:17;100342.25;;;30.14;67.35
62011;BME280;47967;51.756;10.174;2023-08-20T11:11:20;100339.50;;;30.23;67.46
62011;BME280;47967;51.756;10.174;2023-08-20T11:15:23;100341.09;;;30.46;65.04
62011;BME280;47967;51.756;10.174;2023-08-20T11:19:28;100340.41;;;30.41;65.65
62011;BME280;47967;51.756;10.174;2023-08-20T11:23:32;100338.50;;;30.90;65.16
62011;BME280;47967;51.756;10.174;2023-08-20T11:27:35;100337.53;;;31.04;63.46
62011;BME280;47967;51.756;10.174;2023-08-20T11:31:39;100347.41;;;31.19;60.82
62011;BME280;47967;51.756;10.174;2023-08-20T11:35:42;100340.38;;;31.12;61.65
62011;BME280;47967;51.756;10.174;2023-08-20T11:39:47;100345.25;;;31.07;61.28
62011;BME280;47967;51.756;10.174;2023-08-20T11:43:52;100341.72;;;31.59;59.92
62011;BME280;47967;51.756;10.174;2023-08-20T11:47:55;100333.66;;;32.01;57.98
62011;BME280;47967;51.756;10.174;2023-08-20T11:51:59;100328.75;;;31.81;55.81
62011;BME280;47967;51.756;10.174;2023-08-20T11:56:03;100328.25;;;31.26;58.86
62011;BME280;47967;51.756;10.174;2023-08-20T12:00:07;100332.47;;;31.06;59.13
62011;BME280;47967;51.756;10.174;2023-08-20T12:04:15;100335.38;;;30.92;59.39
62011;BME280;47967;51.756;10.174;2023-08-20T12:08:18;100327.94;;;31.36;57.54
62011;BME280;47967;51.756;10.174;2023-08-20T12:12:22;100323.34;;;31.58;57.27
62011;BME280;47967;51.756;10.174;2023-08-20T12:16:25;100318.34;;;32.34;54.84
62011;BME280;47967;51.756;10.174;2023-08-20T12:20:28;100314.69;;;32.33;54.71
62011;BME280;47967;51.756;10.174;2023-08-20T12:24:32;100317.25;;;32.95;52.47
62011;BME280;47967;51.756;10.174;2023-08-20T12:28:36;100312.09;;;32.76;54.06
62011;BME280;47967;51.756;10.174;2023-08-20T12:32:39;100312.88;;;33.06;50.63
62011;BME280;47967;51.756;10.174;2023-08-20T12:36:42;100308.72;;;33.12;49.54
62011;BME280;47967;51.756;10.174;2023-08-20T12:40:44;100310.88;;;33.36;48.61
62011;BME280;47967;51.756;10.174;2023-08-20T12:44:48;100301.28;;;33.59;47.66
62011;BME280;47967;51.756;10.174;2023-08-20T12:48:51;100304.56;;;33.40;50.09
62011;BME280;47967;51.756;10.174;2023-08-20T12:52:54;100294.91;;;33.58;51.33
62011;BME280;47967;51.756;10.174;2023-08-20T12:56:56;100301.81;;;33.73;48.30
62011;BME280;47967;51.756;10.174;2023-08-20T13:01:00;100294.53;;;33.60;48.92
62011;BME280;47967;51.756;10.174;2023-08-20T13:05:04;100292.84;;;34.01;49.34
62011;BME280;47967;51.756;10.174;2023-08-20T13:09:08;100302.06;;;33.47;49.45
62011;BME280;47967;51.756;10.174;2023-08-20T13:13:12;100292.91;;;32.18;52.76
62011;BME280;47967;51.756;10.174;2023-08-20T13:17:17;100288.97;;;32.10;56.16
62011;BME280;47967;51.756;10.174;2023-08-20T13:21:19;100301.38;;;32.39;54.55
62011;BME280;47967;51.756;10.174;2023-08-20T13:25:23;100296.97;;;33.19;51.42
62011;BME280;47967;51.756;10.174;2023-08-20T13:29:25;100302.72;;;32.71;52.02
62011;BME280;47967;51.756;10.174;2023-08-20T13:33:29;100300.84;;;32.84;52.10
62011;BME280;47967;51.756;10.174;2023-08-20T13:37:32;100303.16;;;32.82;53.68
62011;BME280;47967;51.756;10.174;2023-08-20T13:41:35;100294.56;;;32.57;54.64
62011;BME280;47967;51.756;10.174;2023-08-20T13:45:37;100301.97;;;32.06;57.18
62011;BME280;47967;51.756;10.174;2023-08-20T13:49:42;100289.00;;;32.01;57.53
62011;BME280;47967;51.756;10.174;2023-08-20T13:53:45;100292.66;;;31.75;57.87
62011;BME280;47967;51.756;10.174;2023-08-20T13:57:47;100287.56;;;31.25;60.14
62011;BME280;47967;51.756;10.174;2023-08-20T14:01:50;100288.34;;;30.99;60.28
62011;BME280;47967;51.756;10.174;2023-08-20T14:05:54;100281.03;;;31.56;58.61
62011;BME280;47967;51.756;10.174;2023-08-20T14:09:57;100276.28;;;32.30;53.77
62011;BME280;47967;51.756;10.174;2023-08-20T14:13:59;100275.97;;;32.92;52.10
62011;BME280;47967;51.756;10.174;2023-08-20T14:18:03;100279.47;;;34.31;48.35
62011;BME280;47967;51.756;10.174;2023-08-20T14:22:09;100276.78;;;34.35;45.97
62011;BME280;47967;51.756;10.174;2023-08-20T14:26:12;100273.25;;;33.80;47.42
62011;BME280;47967;51.756;10.174;2023-08-20T14:30:14;100282.03;;;34.24;45.04
62011;BME280;47967;51.756;10.174;2023-08-20T14:34:17;100269.06;;;34.32;45.44
62011;BME280;47967;51.756;10.174;2023-08-20T14:38:21;100258.72;;;33.53;47.29
62011;BME280;47967;51.756;10.174;2023-08-20T14:42:24;100259.41;;;32.86;48.79
62011;BME280;47967;51.756;10.174;2023-08-20T14:46:26;100259.63;;;33.78;46.64
62011;BME280;47967;51.756;10.174;2023-08-20T14:50:29;100258.06;;;32.93;47.56
62011;BME280;47967;51.756;10.174;2023-08-20T14:54:33;100255.44;;;32.28;51.67
62011;BME280;47967;51.756;10.174;2023-08-20T14:58:36;100248.97;;;32.45;50.45
62011;BME280;47967;51.756;10.174;2023-08-20T15:02:38;100251.22;;;32.81;50.37
62011;BME280;47967;51.756;10.174;2023-08-20T15:06:41;100257.53;;;33.75;48.67
62011;BME280;47967;51.756;10.174;2023-08-20T15:10:55;100258.28;;;33.63;46.84
62011;BME280;47967;51.756;10.174;2023-08-20T15:14:58;100265.75;;;34.05;45.34
62011;BME280;47967;51.756;10.174;2023-08-20T15:19:01;100259.09;;;33.64;46.16
62011;BME280;47967;51.756;10.174;2023-08-20T15:23:04;100257.06;;;34.31;45.08
62011;BME280;47967;51.756;10.174;2023-08-20T15:27:08;100257.41;;;34.42;44.19
62011;BME280;47967;51.756;10.174;2023-08-20T15:31:10;100259.41;;;34.42;44.13
62011;BME280;47967;51.756;10.174;2023-08-20T15:35:13;100250.63;;;33.39;47.14
62011;BME280;47967;51.756;10.174;2023-08-20T15:39:16;100252.13;;;33.70;46.84
62011;BME280;47967;51.756;10.174;2023-08-20T15:43:21;100246.00;;;33.56;46.70
62011;BME280;47967;51.756;10.174;2023-08-20T15:47:23;100241.16;;;34.11;46.26
62011;BME280;47967;51.756;10.174;2023-08-20T15:51:26;100240.13;;;34.65;43.40
62011;BME280;47967;51.756;10.174;2023-08-20T15:55:29;100227.16;;;34.23;44.54
62011;BME280;47967;51.756;10.174;2023-08-20T15:59:33;100224.00;;;34.00;45.16
62011;BME280;47967;51.756;10.174;2023-08-20T16:03:36;100224.59;;;34.30;43.94
62011;BME280;47967;51.756;10.174;2023-08-20T16:07:39;100214.69;;;35.11;42.62
62011;BME280;47967;51.756;10.174;2023-08-20T16:11:42;100206.44;;;35.31;41.69
62011;BME280;47967;51.756;10.174;2023-08-20T16:15:47;100211.00;;;34.82;43.28
62011;BME280;47967;51.756;10.174;2023-08-20T16:19:50;100207.13;;;34.99;43.44
62011;BME280;47967;51.756;10.174;2023-08-20T16:23:53;100220.06;;;33.67;45.59
62011;BME280;47967;51.756;10.174;2023-08-20T16:27:55;100221.22;;;33.66;46.63
62011;BME280;47967;51.756;10.174;2023-08-20T16:31:59;100225.44;;;32.97;47.61
62011;BME280;47967;51.756;10.174;2023-08-20T16:36:04;100223.69;;;32.41;50.35
62011;BME280;47967;51.756;10.174;2023-08-20T16:40:07;100221.66;;;32.03;51.72
62011;BME280;47967;51.756;10.174;2023-08-20T16:44:10;100232.97;;;31.41;55.40
62011;BME280;47967;51.756;10.174;2023-08-20T16:48:14;100237.50;;;30.76;59.22
62011;BME280;47967;51.756;10.174;2023-08-20T16:52:17;100249.16;;;30.38;61.65
62011;BME280;47967;51.756;10.174;2023-08-20T16:56:19;100244.22;;;30.34;63.20
62011;BME280;47967;51.756;10.174;2023-08-20T17:00:23;100245.59;;;30.46;63.41
62011;BME280;47967;51.756;10.174;2023-08-20T17:04:27;100248.78;;;30.53;62.78
62011;BME280;47967;51.756;10.174;2023-08-20T17:08:30;100252.19;;;30.50;63.82
62011;BME280;47967;51.756;10.174;2023-08-20T17:12:33;100250.97;;;30.91;61.72
62011;BME280;47967;51.756;10.174;2023-08-20T17:16:36;100242.94;;;31.60;58.99
62011;BME280;47967;51.756;10.174;2023-08-20T17:20:41;100241.66;;;31.40;59.08
62011;BME280;47967;51.756;10.174;2023-08-20T17:24:43;100242.94;;;31.07;59.99
62011;BME280;47967;51.756;10.174;2023-08-20T17:28:46;100244.94;;;31.42;58.43
62011;BME280;47967;51.756;10.174;2023-08-20T17:32:49;100249.84;;;31.45;59.31
62011;BME280;47967;51.756;10.174;2023-08-20T17:36:53;100239.81;;;30.74;61.75
62011;BME280;47967;51.756;10.174;2023-08-20T17:40:57;100255.16;;;30.22;65.65
62011;BME280;47967;51.756;10.174;2023-08-20T17:44:59;100246.94;;;29.85;68.90
62011;BME280;47967;51.756;10.174;2023-08-20T17:49:02;100246.97;;;29.40;72.95
62011;BME280;47967;51.756;10.174;2023-08-20T17:53:06;100246.56;;;29.10;75.13
62011;BME280;47967;51.756;10.174;2023-08-20T17:57:09;100247.34;;;28.74;77.88
62011;BME280;47967;51.756;10.174;2023-08-20T18:01:12;100242.59;;;28.60;79.59
62011;BME280;47967;51.756;10.174;2023-08-20T18:05:14;100253.38;;;28.34;79.01
62011;BME280;47967;51.756;10.174;2023-08-20T18:09:18;100254.63;;;28.28;80.30
62011;BME280;47967;51.756;10.174;2023-08-20T18:13:21;100253.28;;;28.25;81.09
62011;BME280;47967;51.756;10.174;2023-08-20T18:17:24;100253.78;;;28.14;82.24
62011;BME280;47967;51.756;10.174;2023-08-20T18:21:27;100265.19;;;28.12;83.12
62011;BME280;47967;51.756;10.174;2023-08-20T18:25:30;100269.94;;;27.78;83.09
62011;BME280;47967;51.756;10.174;2023-08-20T18:29:33;100261.75;;;27.16;87.76
62011;BME280;47967;51.756;10.174;2023-08-20T18:33:36;100268.78;;;27.08;89.17
62011;BME280;47967;51.756;10.174;2023-08-20T18:37:39;100276.88;;;26.56;92.36
62011;BME280;47967;51.756;10.174;2023-08-20T18:41:42;100280.88;;;26.20;93.77
62011;BME280;47967;51.756;10.174;2023-08-20T18:45:46;100287.94;;;26.08;94.81
62011;BME280;47967;51.756;10.174;2023-08-20T18:49:49;100286.66;;;26.48;93.27
62011;BME280;47967;51.756;10.174;2023-08-20T18:53:51;100284.78;;;26.44;92.23
62011;BME280;47967;51.756;10.174;2023-08-20T18:57:56;100297.09;;;26.32;94.61
62011;BME280;47967;51.756;10.174;2023-08-20T19:01:58;100307.06;;;26.58;93.94
62011;BME280;47967;51.756;10.174;2023-08-20T19:06:01;100313.53;;;26.48;95.58
62011;BME280;47967;51.756;10.174;2023-08-20T19:10:05;100310.56;;;26.15;99.95
62011;BME280;47967;51.756;10.174;2023-08-20T19:14:09;100321.72;;;25.99;100.00
62011;BME280;47967;51.756;10.174;2023-08-20T19:18:12;100319.66;;;25.81;100.00
62011;BME280;47967;51.756;10.174;2023-08-20T19:22:15;100319.66;;;25.81;100.00
62011;BME280;47967;51.756;10.174;2023-08-20T19:26:18;100327.16;;;25.75;100.00
62011;BME280;47967;51.756;10.174;2023-08-20T19:30:25;100323.69;;;25.59;100.00
62011;BME280;47967;51.756;10.174;2023-08-20T19:34:30;100340.91;;;25.46;100.00
62011;BME280;47967;51.756;10.174;2023-08-20T19:38:33;100330.31;;;25.08;100.00
62011;BME280;47967;51.756;10.174;2023-08-20T19:42:35;100333.78;;;24.69;100.00
62011;BME280;47967;51.756;10.174;2023-08-20T19:46:40;100341.78;;;24.60;100.00
62011;BME280;47967;51.756;10.174;2023-08-20T19:50:43;100342.34;;;24.57;100.00
62011;BME280;47967;51.756;10.174;2023-08-20T19:54:46;100342.63;;;24.66;100.00
62011;BME280;47967;51.756;10.174;2023-08-20T19:58:49;100355.03;;;24.73;100.00
62011;BME280;47967;51.756;10.174;2023-08-20T20:02:53;100350.03;;;24.81;100.00
62011;BME280;47967;51.756;10.174;2023-08-20T20:06:55;100359.66;;;24.88;100.00
62011;BME280;47967;51.756;10.174;2023-08-20T20:11:19;100367.16;;;24.72;100.00
62011;BME280;47967;51.756;10.174;2023-08-20T20:15:22;100366.88;;;24.64;100.00
62011;BME280;47967;51.756;10.174;2023-08-20T20:19:26;100358.41;;;24.34;100.00
62011;BME280;47967;51.756;10.174;2023-08-20T20:23:29;100366.66;;;24.03;100.00
62011;BME280;47967;51.756;10.174;2023-08-20T20:27:31;100368.88;;;24.06;100.00
62011;BME280;47967;51.756;10.174;2023-08-20T20:31:36;100373.00;;;24.14;100.00
62011;BME280;47967;51.756;10.174;2023-08-20T20:35:39;100370.53;;;24.18;100.00
62011;BME280;47967;51.756;10.174;2023-08-20T20:39:42;100379.63;;;24.08;100.00
62011;BME280;47967;51.756;10.174;2023-08-20T20:43:45;100372.47;;;24.07;100.00
62011;BME280;47967;51.756;10.174;2023-08-20T20:47:47;100388.19;;;24.06;100.00
62011;BME280;47967;51.756;10.174;2023-08-20T20:51:51;100378.53;;;24.04;100.00
62011;BME280;47967;51.756;10.174;2023-08-20T20:55:57;100387.31;;;23.90;100.00
62011;BME280;47967;51.756;10.174;2023-08-20T20:59:59;100390.63;;;23.82;100.00
